sensor_id;sensor_type;location;lat;lon;timestamp;P1;durP1;ratioP1;P2;durP2;ratioP2
32228;SDS011;18717;48.034;11.186;2023-05-21T00:00:48;17.92;;;16.38;;
32228;SDS011;18717;48.034;11.186;2023-05-21T00:03:16;18.42;;;16.63;;
32228;SDS011;18717;48.034;11.186;2023-05-21T00:05:46;17.23;;;15.77;;
32228;SDS011;18717;48.034;11.186;2023-05-21T00:08:15;17.95;;;16.65;;
32228;SDS011;18717;48.034;11.186;2023-05-21T00:10:43;18.15;;;16.58;;
32228;SDS011;18717;48.034;11.186;2023-05-21T00:13:11;17.77;;;16.38;;
32228;SDS011;18717;48.034;11.186;2023-05-21T00:15:38;18.27;;;16.67;;
32228;SDS011;18717;48.034;11.186;2023-05-21T00:18:06;18.20;;;16.60;;
32228;SDS011;18717;48.034;11.186;2023-05-21T00:20:34;17.77;;;16.27;;
32228;SDS011;18717;48.034;11.186;2023-05-21T00:23:03;17.35;;;15.70;;
32228;SDS011;18717;48.034;11.186;2023-05-21T00:25:31;18.10;;;16.55;;
32228;SDS011;18717;48.034;11.186;2023-05-21T00:27:59;17.20;;;15.80;;
32228;SDS011;18717;48.034;11.186;2023-05-21T00:30:27;18.13;;;15.98;;
32228;SDS011;18717;48.034;11.186;2023-05-21T00:32:54;18.10;;;16.20;;
32228;SDS011;18717;48.034;11.186;2023-05-21T00:35:24;18.58;;;16.98;;
32228;SDS011;18717;48.034;11.186;2023-05-21T00:37:51;17.70;;;16.25;;
32228;SDS011;18717;48.034;11.186;2023-05-21T00:40:20;17.55;;;15.98;;
32228;SDS011;18717;48.034;11.186;2023-05-21T00:42:48;16.60;;;15.25;;
32228;SDS011;18717;48.034;11.186;2023-05-21T00:45:16;18.58;;;17.10;;
32228;SDS011;18717;48.034;11.186;2023-05-21T00:47:44;17.20;;;15.80;;
32228;SDS011;18717;48.034;11.186;2023-05-21T00:50:13;16.55;;;15.23;;
32228;SDS011;18717;48.034;11.186;2023-05-21T00:52:42;17.30;;;15.73;;
32228;SDS011;18717;48.034;11.186;2023-05-21T00:55:11;17.83;;;15.98;;
32228;SDS011;18717;48.034;11.186;2023-05-21T00:57:40;18.52;;;16.75;;
32228;SDS011;18717;48.034;11.186;2023-05-21T01:00:08;18.08;;;16.23;;
32228;SDS011;18717;48.034;11.186;2023-05-21T01:02:37;16.38;;;14.93;;
32228;SDS011;18717;48.034;11.186;2023-05-21T01:05:05;18.10;;;16.20;;
32228;SDS011;18717;48.034;11.186;2023-05-21T01:07:33;17.85;;;16.40;;
32228;SDS011;18717;48.034;11.186;2023-05-21T01:10:02;17.05;;;15.73;;
32228;SDS011;18717;48.034;11.186;2023-05-21T01:12:30;18.67;;;16.85;;
32228;SDS011;18717;48.034;11.186;2023-05-21T01:15:01;19.95;;;18.35;;
32228;SDS011;18717;48.034;11.186;2023-05-21T01:17:30;18.55;;;16.95;;
32228;SDS011;18717;48.034;11.186;2023-05-21T01:19:59;18.45;;;16.75;;
32228;SDS011;18717;48.034;11.186;2023-05-21T01:22:32;18.65;;;16.00;;
32228;SDS011;18717;48.034;11.186;2023-05-21T01:25:02;18.75;;;16.92;;
32228;SDS011;18717;48.034;11.186;2023-05-21T01:27:30;18.30;;;16.30;;
32228;SDS011;18717;48.034;11.186;2023-05-21T01:29:57;17.83;;;16.23;;
32228;SDS011;18717;48.034;11.186;2023-05-21T01:32:27;18.63;;;16.75;;
32228;SDS011;18717;48.034;11.186;2023-05-21T01:34:58;18.15;;;16.45;;
32228;SDS011;18717;48.034;11.186;2023-05-21T01:37:29;18.23;;;16.52;;
32228;SDS011;18717;48.034;11.186;2023-05-21T01:39:59;18.77;;;17.08;;
32228;SDS011;18717;48.034;11.186;2023-05-21T01:42:32;19.15;;;17.45;;
32228;SDS011;18717;48.034;11.186;2023-05-21T01:45:00;19.98;;;18.05;;
32228;SDS011;18717;48.034;11.186;2023-05-21T01:47:31;21.63;;;19.42;;
32228;SDS011;18717;48.034;11.186;2023-05-21T01:49:59;18.92;;;17.23;;
32228;SDS011;18717;48.034;11.186;2023-05-21T01:52:27;21.13;;;19.05;;
32228;SDS011;18717;48.034;11.186;2023-05-21T01:54:55;20.27;;;18.27;;
32228;SDS011;18717;48.034;11.186;2023-05-21T01:57:24;20.17;;;17.98;;
32228;SDS011;18717;48.034;11.186;2023-05-21T01:59:52;21.63;;;18.30;;
32228;SDS011;18717;48.034;11.186;2023-05-21T02:02:20;19.10;;;17.30;;
32228;SDS011;18717;48.034;11.186;2023-05-21T02:04:48;20.33;;;18.23;;
32228;SDS011;18717;48.034;11.186;2023-05-21T02:07:16;20.08;;;18.13;;
32228;SDS011;18717;48.034;11.186;2023-05-21T02:09:45;18.73;;;17.02;;
32228;SDS011;18717;48.034;11.186;2023-05-21T02:12:12;19.50;;;17.80;;
32228;SDS011;18717;48.034;11.186;2023-05-21T02:14:41;18.50;;;16.70;;
32228;SDS011;18717;48.034;11.186;2023-05-21T02:17:09;20.35;;;18.55;;
32228;SDS011;18717;48.034;11.186;2023-05-21T02:19:37;19.58;;;17.75;;
32228;SDS011;18717;48.034;11.186;2023-05-21T02:22:04;19.17;;;17.27;;
32228;SDS011;18717;48.034;11.186;2023-05-21T02:24:32;19.10;;;17.30;;
32228;SDS011;18717;48.034;11.186;2023-05-21T02:27:00;19.55;;;17.73;;
32228;SDS011;18717;48.034;11.186;2023-05-21T02:29:28;19.13;;;17.45;;
32228;SDS011;18717;48.034;11.186;2023-05-21T02:31:57;18.38;;;16.63;;
32228;SDS011;18717;48.034;11.186;2023-05-21T02:34:24;19.67;;;17.70;;
32228;SDS011;18717;48.034;11.186;2023-05-21T02:36:55;19.77;;;17.92;;
32228;SDS011;18717;48.034;11.186;2023-05-21T02:39:24;18.70;;;17.00;;
32228;SDS011;18717;48.034;11.186;2023-05-21T02:41:52;21.10;;;18.85;;
32228;SDS011;18717;48.034;11.186;2023-05-21T02:44:20;20.27;;;18.13;;
32228;SDS011;18717;48.034;11.186;2023-05-21T02:46:49;20.10;;;17.95;;
32228;SDS011;18717;48.034;11.186;2023-05-21T02:49:18;19.27;;;17.45;;
32228;SDS011;18717;48.034;11.186;2023-05-21T02:51:46;18.42;;;16.90;;
32228;SDS011;18717;48.034;11.186;2023-05-21T02:54:14;19.42;;;17.63;;
32228;SDS011;18717;48.034;11.186;2023-05-21T02:56:42;19.05;;;17.20;;
32228;SDS011;18717;48.034;11.186;2023-05-21T02:59:09;19.92;;;18.00;;
32228;SDS011;18717;48.034;11.186;2023-05-21T03:01:37;20.52;;;18.48;;
32228;SDS011;18717;48.034;11.186;2023-05-21T03:04:06;20.55;;;18.70;;
32228;SDS011;18717;48.034;11.186;2023-05-21T03:06:35;21.30;;;19.25;;
32228;SDS011;18717;48.034;11.186;2023-05-21T03:09:03;20.45;;;18.30;;
32228;SDS011;18717;48.034;11.186;2023-05-21T03:11:31;20.30;;;18.27;;
32228;SDS011;18717;48.034;11.186;2023-05-21T03:13:59;19.85;;;17.67;;
32228;SDS011;18717;48.034;11.186;2023-05-21T03:16:27;20.20;;;18.13;;
32228;SDS011;18717;48.034;11.186;2023-05-21T03:18:55;19.70;;;17.92;;
32228;SDS011;18717;48.034;11.186;2023-05-21T03:21:22;21.10;;;18.58;;
32228;SDS011;18717;48.034;11.186;2023-05-21T03:23:51;20.10;;;18.20;;
32228;SDS011;18717;48.034;11.186;2023-05-21T03:26:23;19.85;;;18.02;;
32228;SDS011;18717;48.034;11.186;2023-05-21T03:28:52;20.30;;;18.27;;
32228;SDS011;18717;48.034;11.186;2023-05-21T03:31:20;24.77;;;19.20;;
32228;SDS011;18717;48.034;11.186;2023-05-21T03:33:48;21.27;;;17.83;;
32228;SDS011;18717;48.034;11.186;2023-05-21T03:36:16;19.45;;;17.48;;
32228;SDS011;18717;48.034;11.186;2023-05-21T03:38:44;20.65;;;18.77;;
32228;SDS011;18717;48.034;11.186;2023-05-21T03:41:13;20.42;;;17.85;;
32228;SDS011;18717;48.034;11.186;2023-05-21T03:43:41;18.33;;;16.63;;
32228;SDS011;18717;48.034;11.186;2023-05-21T03:46:08;19.55;;;17.63;;
32228;SDS011;18717;48.034;11.186;2023-05-21T03:48:36;21.23;;;19.13;;
32228;SDS011;18717;48.034;11.186;2023-05-21T03:51:04;19.48;;;17.63;;
32228;SDS011;18717;48.034;11.186;2023-05-21T03:53:33;22.08;;;18.35;;
32228;SDS011;18717;48.034;11.186;2023-05-21T03:56:01;21.15;;;18.98;;
32228;SDS011;18717;48.034;11.186;2023-05-21T03:58:30;21.67;;;19.48;;
32228;SDS011;18717;48.034;11.186;2023-05-21T04:00:58;20.30;;;17.70;;
32228;SDS011;18717;48.034;11.186;2023-05-21T04:03:27;21.27;;;18.77;;
32228;SDS011;18717;48.034;11.186;2023-05-21T04:05:55;20.90;;;18.80;;
32228;SDS011;18717;48.034;11.186;2023-05-21T04:08:23;19.95;;;18.13;;
32228;SDS011;18717;48.034;11.186;2023-05-21T04:10:51;20.02;;;18.00;;
32228;SDS011;18717;48.034;11.186;2023-05-21T04:13:19;20.58;;;18.63;;
32228;SDS011;18717;48.034;11.186;2023-05-21T04:15:48;20.45;;;18.50;;
32228;SDS011;18717;48.034;11.186;2023-05-21T04:18:16;20.90;;;18.15;;
32228;SDS011;18717;48.034;11.186;2023-05-21T04:20:45;21.75;;;18.42;;
32228;SDS011;18717;48.034;11.186;2023-05-21T04:23:15;19.58;;;17.77;;
32228;SDS011;18717;48.034;11.186;2023-05-21T04:25:42;20.15;;;18.13;;
32228;SDS011;18717;48.034;11.186;2023-05-21T04:28:10;19.88;;;17.85;;
32228;SDS011;18717;48.034;11.186;2023-05-21T04:30:38;19.63;;;17.83;;
32228;SDS011;18717;48.034;11.186;2023-05-21T04:33:07;19.67;;;17.75;;
32228;SDS011;18717;48.034;11.186;2023-05-21T04:35:35;20.25;;;18.25;;
32228;SDS011;18717;48.034;11.186;2023-05-21T04:38:03;19.60;;;17.58;;
32228;SDS011;18717;48.034;11.186;2023-05-21T04:40:31;20.98;;;17.98;;
32228;SDS011;18717;48.034;11.186;2023-05-21T04:43:02;20.60;;;18.10;;
32228;SDS011;18717;48.034;11.186;2023-05-21T04:45:30;18.45;;;16.60;;
32228;SDS011;18717;48.034;11.186;2023-05-21T04:47:58;19.58;;;17.85;;
32228;SDS011;18717;48.034;11.186;2023-05-21T04:50:27;19.52;;;17.55;;
32228;SDS011;18717;48.034;11.186;2023-05-21T04:52:56;19.05;;;17.30;;
32228;SDS011;18717;48.034;11.186;2023-05-21T04:55:24;18.98;;;17.13;;
32228;SDS011;18717;48.034;11.186;2023-05-21T04:57:52;20.65;;;17.35;;
32228;SDS011;18717;48.034;11.186;2023-05-21T05:00:20;19.58;;;17.40;;
32228;SDS011;18717;48.034;11.186;2023-05-21T05:02:50;19.45;;;17.55;;
32228;SDS011;18717;48.034;11.186;2023-05-21T05:05:18;20.80;;;18.67;;
32228;SDS011;18717;48.034;11.186;2023-05-21T05:07:47;19.92;;;17.98;;
32228;SDS011;18717;48.034;11.186;2023-05-21T05:10:15;20.95;;;18.80;;
32228;SDS011;18717;48.034;11.186;2023-05-21T05:12:43;20.77;;;18.45;;
32228;SDS011;18717;48.034;11.186;2023-05-21T05:15:10;20.50;;;18.42;;
32228;SDS011;18717;48.034;11.186;2023-05-21T05:17:38;20.33;;;18.42;;
32228;SDS011;18717;48.034;11.186;2023-05-21T05:20:06;20.67;;;18.63;;
32228;SDS011;18717;48.034;11.186;2023-05-21T05:22:35;20.88;;;18.77;;
32228;SDS011;18717;48.034;11.186;2023-05-21T05:25:05;20.80;;;18.90;;
32228;SDS011;18717;48.034;11.186;2023-05-21T05:27:33;20.33;;;18.33;;
32228;SDS011;18717;48.034;11.186;2023-05-21T05:30:04;22.75;;;18.83;;
32228;SDS011;18717;48.034;11.186;2023-05-21T05:32:32;23.02;;;18.60;;
32228;SDS011;18717;48.034;11.186;2023-05-21T05:35:03;19.90;;;17.90;;
32228;SDS011;18717;48.034;11.186;2023-05-21T05:41:00;22.83;;;19.23;;
32228;SDS011;18717;48.034;11.186;2023-05-21T05:43:28;22.48;;;20.30;;
32228;SDS011;18717;48.034;11.186;2023-05-21T05:45:59;20.92;;;18.85;;
32228;SDS011;18717;48.034;11.186;2023-05-21T05:48:27;20.63;;;18.10;;
32228;SDS011;18717;48.034;11.186;2023-05-21T05:50:54;20.92;;;19.15;;
32228;SDS011;18717;48.034;11.186;2023-05-21T07:22:24;19.17;;;17.52;;
32228;SDS011;18717;48.034;11.186;2023-05-21T07:24:53;21.08;;;19.00;;
32228;SDS011;18717;48.034;11.186;2023-05-21T07:27:21;20.20;;;18.40;;
32228;SDS011;18717;48.034;11.186;2023-05-21T07:29:51;20.00;;;18.25;;
32228;SDS011;18717;48.034;11.186;2023-05-21T07:32:18;19.95;;;18.15;;
32228;SDS011;18717;48.034;11.186;2023-05-21T07:34:46;19.95;;;18.13;;
32228;SDS011;18717;48.034;11.186;2023-05-21T07:37:15;20.30;;;18.58;;
32228;SDS011;18717;48.034;11.186;2023-05-21T07:39:45;20.42;;;18.58;;
32228;SDS011;18717;48.034;11.186;2023-05-21T07:42:13;20.13;;;18.63;;
32228;SDS011;18717;48.034;11.186;2023-05-21T07:44:40;20.83;;;19.13;;
32228;SDS011;18717;48.034;11.186;2023-05-21T07:47:08;19.88;;;18.27;;
32228;SDS011;18717;48.034;11.186;2023-05-21T07:49:36;20.33;;;18.58;;
32228;SDS011;18717;48.034;11.186;2023-05-21T07:52:03;19.83;;;18.23;;
32228;SDS011;18717;48.034;11.186;2023-05-21T07:54:32;19.25;;;17.70;;
32228;SDS011;18717;48.034;11.186;2023-05-21T07:57:01;20.60;;;18.88;;
32228;SDS011;18717;48.034;11.186;2023-05-21T07:59:29;21.17;;;19.38;;
32228;SDS011;18717;48.034;11.186;2023-05-21T08:01:56;19.38;;;17.88;;
32228;SDS011;18717;48.034;11.186;2023-05-21T08:04:24;21.52;;;19.75;;
32228;SDS011;18717;48.034;11.186;2023-05-21T08:06:52;20.63;;;18.77;;
32228;SDS011;18717;48.034;11.186;2023-05-21T08:09:20;20.10;;;18.23;;
32228;SDS011;18717;48.034;11.186;2023-05-21T08:11:47;20.80;;;19.00;;
32228;SDS011;18717;48.034;11.186;2023-05-21T08:14:16;20.13;;;18.45;;
32228;SDS011;18717;48.034;11.186;2023-05-21T08:16:45;21.35;;;19.70;;
32228;SDS011;18717;48.034;11.186;2023-05-21T08:19:13;20.58;;;18.98;;
32228;SDS011;18717;48.034;11.186;2023-05-21T08:21:40;19.92;;;18.42;;
32228;SDS011;18717;48.034;11.186;2023-05-21T08:24:08;19.45;;;17.80;;
32228;SDS011;18717;48.034;11.186;2023-05-21T08:26:36;20.38;;;18.77;;
32228;SDS011;18717;48.034;11.186;2023-05-21T08:29:04;20.70;;;19.05;;
32228;SDS011;18717;48.034;11.186;2023-05-21T08:31:33;22.55;;;20.63;;
32228;SDS011;18717;48.034;11.186;2023-05-21T08:34:00;21.08;;;19.50;;
32228;SDS011;18717;48.034;11.186;2023-05-21T08:36:28;21.45;;;19.70;;
32228;SDS011;18717;48.034;11.186;2023-05-21T08:38:56;21.75;;;20.00;;
32228;SDS011;18717;48.034;11.186;2023-05-21T08:41:24;21.95;;;19.80;;
32228;SDS011;18717;48.034;11.186;2023-05-21T08:43:53;21.20;;;18.58;;
32228;SDS011;18717;48.034;11.186;2023-05-21T08:46:22;20.58;;;18.45;;
32228;SDS011;18717;48.034;11.186;2023-05-21T08:48:51;20.52;;;18.73;;
32228;SDS011;18717;48.034;11.186;2023-05-21T08:51:21;23.02;;;18.73;;
32228;SDS011;18717;48.034;11.186;2023-05-21T08:53:49;19.90;;;18.40;;
32228;SDS011;18717;48.034;11.186;2023-05-21T08:56:17;19.80;;;18.35;;
32228;SDS011;18717;48.034;11.186;2023-05-21T08:58:45;21.55;;;19.83;;
32228;SDS011;18717;48.034;11.186;2023-05-21T09:01:13;20.48;;;18.92;;
32228;SDS011;18717;48.034;11.186;2023-05-21T09:03:43;19.58;;;18.05;;
32228;SDS011;18717;48.034;11.186;2023-05-21T09:06:13;20.20;;;18.67;;
32228;SDS011;18717;48.034;11.186;2023-05-21T09:08:42;20.75;;;18.95;;
32228;SDS011;18717;48.034;11.186;2023-05-21T09:11:11;19.90;;;18.20;;
32228;SDS011;18717;48.034;11.186;2023-05-21T09:13:38;20.30;;;18.88;;
32228;SDS011;18717;48.034;11.186;2023-05-21T09:16:06;19.80;;;18.10;;
32228;SDS011;18717;48.034;11.186;2023-05-21T09:18:36;20.05;;;18.50;;
32228;SDS011;18717;48.034;11.186;2023-05-21T09:23:54;20.08;;;18.35;;
32228;SDS011;18717;48.034;11.186;2023-05-21T09:26:22;19.75;;;18.27;;
32228;SDS011;18717;48.034;11.186;2023-05-21T09:28:51;20.15;;;18.48;;
32228;SDS011;18717;48.034;11.186;2023-05-21T09:31:18;20.60;;;19.05;;
32228;SDS011;18717;48.034;11.186;2023-05-21T09:33:48;21.00;;;19.30;;
32228;SDS011;18717;48.034;11.186;2023-05-21T09:36:16;21.67;;;19.98;;
32228;SDS011;18717;48.034;11.186;2023-05-21T09:38:47;20.88;;;19.38;;
32228;SDS011;18717;48.034;11.186;2023-05-21T09:41:17;19.88;;;18.35;;
32228;SDS011;18717;48.034;11.186;2023-05-21T09:43:47;20.75;;;18.83;;
32228;SDS011;18717;48.034;11.186;2023-05-21T09:46:16;19.85;;;18.23;;
32228;SDS011;18717;48.034;11.186;2023-05-21T09:48:47;19.10;;;17.77;;
32228;SDS011;18717;48.034;11.186;2023-05-21T09:51:15;19.40;;;17.88;;
32228;SDS011;18717;48.034;11.186;2023-05-21T09:53:49;18.88;;;17.52;;
32228;SDS011;18717;48.034;11.186;2023-05-21T09:56:18;19.58;;;18.02;;
32228;SDS011;18717;48.034;11.186;2023-05-21T09:58:50;18.80;;;17.40;;
32228;SDS011;18717;48.034;11.186;2023-05-21T10:01:19;18.50;;;17.25;;
32228;SDS011;18717;48.034;11.186;2023-05-21T10:03:49;18.65;;;17.23;;
32228;SDS011;18717;48.034;11.186;2023-05-21T10:06:17;18.48;;;17.27;;
32228;SDS011;18717;48.034;11.186;2023-05-21T10:08:46;18.98;;;17.77;;
32228;SDS011;18717;48.034;11.186;2023-05-21T10:11:16;18.83;;;17.63;;
32228;SDS011;18717;48.034;11.186;2023-05-21T10:13:46;18.58;;;17.25;;
32228;SDS011;18717;48.034;11.186;2023-05-21T10:16:15;19.75;;;18.38;;
32228;SDS011;18717;48.034;11.186;2023-05-21T10:18:43;18.67;;;17.40;;
32228;SDS011;18717;48.034;11.186;2023-05-21T10:21:12;19.02;;;17.63;;
32228;SDS011;18717;48.034;11.186;2023-05-21T10:23:40;18.90;;;17.63;;
32228;SDS011;18717;48.034;11.186;2023-05-21T10:26:10;19.25;;;17.75;;
32228;SDS011;18717;48.034;11.186;2023-05-21T10:28:38;20.20;;;18.48;;
32228;SDS011;18717;48.034;11.186;2023-05-21T10:31:06;19.10;;;17.63;;
32228;SDS011;18717;48.034;11.186;2023-05-21T10:33:34;18.13;;;16.85;;
32228;SDS011;18717;48.034;11.186;2023-05-21T10:36:03;19.58;;;18.02;;
32228;SDS011;18717;48.034;11.186;2023-05-21T10:38:32;18.85;;;17.35;;
32228;SDS011;18717;48.034;11.186;2023-05-21T10:41:00;19.38;;;17.95;;
32228;SDS011;18717;48.034;11.186;2023-05-21T10:43:34;20.08;;;18.33;;
32228;SDS011;18717;48.034;11.186;2023-05-21T10:46:13;19.17;;;17.67;;
32228;SDS011;18717;48.034;11.186;2023-05-21T10:48:52;19.35;;;18.05;;
32228;SDS011;18717;48.034;11.186;2023-05-21T10:51:25;19.88;;;18.52;;
32228;SDS011;18717;48.034;11.186;2023-05-21T10:54:03;19.25;;;18.00;;
32228;SDS011;18717;48.034;11.186;2023-05-21T10:56:43;20.98;;;19.33;;
32228;SDS011;18717;48.034;11.186;2023-05-21T10:59:15;19.63;;;18.23;;
32228;SDS011;18717;48.034;11.186;2023-05-21T11:01:48;20.20;;;18.70;;
32228;SDS011;18717;48.034;11.186;2023-05-21T11:04:20;20.15;;;18.65;;
32228;SDS011;18717;48.034;11.186;2023-05-21T11:06:48;20.35;;;18.85;;
32228;SDS011;18717;48.034;11.186;2023-05-21T11:09:16;18.73;;;17.50;;
32228;SDS011;18717;48.034;11.186;2023-05-21T11:11:45;19.17;;;17.88;;
32228;SDS011;18717;48.034;11.186;2023-05-21T11:14:33;20.08;;;18.63;;
32228;SDS011;18717;48.034;11.186;2023-05-21T11:17:03;20.48;;;18.88;;
32228;SDS011;18717;48.034;11.186;2023-05-21T11:19:37;18.88;;;17.63;;
32228;SDS011;18717;48.034;11.186;2023-05-21T11:22:06;19.83;;;18.52;;
32228;SDS011;18717;48.034;11.186;2023-05-21T11:24:38;18.75;;;17.55;;
32228;SDS011;18717;48.034;11.186;2023-05-21T11:27:07;18.77;;;17.58;;
32228;SDS011;18717;48.034;11.186;2023-05-21T11:29:39;19.88;;;18.65;;
32228;SDS011;18717;48.034;11.186;2023-05-21T11:32:11;19.65;;;18.40;;
32228;SDS011;18717;48.034;11.186;2023-05-21T11:34:41;19.48;;;18.13;;
32228;SDS011;18717;48.034;11.186;2023-05-21T11:37:23;18.65;;;17.42;;
32228;SDS011;18717;48.034;11.186;2023-05-21T11:39:54;19.38;;;18.13;;
32228;SDS011;18717;48.034;11.186;2023-05-21T11:42:32;18.33;;;17.13;;
32228;SDS011;18717;48.034;11.186;2023-05-21T11:45:01;18.42;;;17.13;;
32228;SDS011;18717;48.034;11.186;2023-05-21T11:47:30;20.00;;;18.80;;
32228;SDS011;18717;48.034;11.186;2023-05-21T11:49:58;20.35;;;18.85;;
32228;SDS011;18717;48.034;11.186;2023-05-21T11:52:27;19.98;;;18.23;;
32228;SDS011;18717;48.034;11.186;2023-05-21T11:54:55;19.00;;;17.65;;
32228;SDS011;18717;48.034;11.186;2023-05-21T11:57:27;18.75;;;17.50;;
32228;SDS011;18717;48.034;11.186;2023-05-21T11:59:57;19.25;;;18.00;;
32228;SDS011;18717;48.034;11.186;2023-05-21T12:02:29;19.17;;;17.95;;
32228;SDS011;18717;48.034;11.186;2023-05-21T12:04:57;19.42;;;18.20;;
32228;SDS011;18717;48.034;11.186;2023-05-21T12:07:26;20.52;;;18.92;;
32228;SDS011;18717;48.034;11.186;2023-05-21T12:09:55;18.67;;;17.48;;
32228;SDS011;18717;48.034;11.186;2023-05-21T12:12:24;19.08;;;17.48;;
32228;SDS011;18717;48.034;11.186;2023-05-21T12:15:00;19.27;;;17.85;;
32228;SDS011;18717;48.034;11.186;2023-05-21T12:17:30;18.63;;;17.38;;
32228;SDS011;18717;48.034;11.186;2023-05-21T12:19:58;19.33;;;17.83;;
32228;SDS011;18717;48.034;11.186;2023-05-21T12:22:27;18.55;;;17.45;;
32228;SDS011;18717;48.034;11.186;2023-05-21T12:24:55;19.92;;;18.35;;
32228;SDS011;18717;48.034;11.186;2023-05-21T12:27:26;18.55;;;17.35;;
32228;SDS011;18717;48.034;11.186;2023-05-21T12:29:53;18.48;;;17.17;;
32228;SDS011;18717;48.034;11.186;2023-05-21T12:32:21;18.42;;;17.13;;
32228;SDS011;18717;48.034;11.186;2023-05-21T12:34:50;19.00;;;17.70;;
32228;SDS011;18717;48.034;11.186;2023-05-21T12:37:21;19.58;;;18.20;;
32228;SDS011;18717;48.034;11.186;2023-05-21T12:39:50;19.60;;;18.40;;
32228;SDS011;18717;48.034;11.186;2023-05-21T12:42:23;20.15;;;18.85;;
32228;SDS011;18717;48.034;11.186;2023-05-21T12:44:52;20.13;;;18.75;;
32228;SDS011;18717;48.034;11.186;2023-05-21T12:47:21;18.58;;;17.40;;
32228;SDS011;18717;48.034;11.186;2023-05-21T12:49:52;19.15;;;17.77;;
32228;SDS011;18717;48.034;11.186;2023-05-21T12:52:21;19.08;;;17.88;;
32228;SDS011;18717;48.034;11.186;2023-05-21T12:54:50;19.98;;;18.70;;
32228;SDS011;18717;48.034;11.186;2023-05-21T12:57:18;19.48;;;17.80;;
32228;SDS011;18717;48.034;11.186;2023-05-21T12:59:49;18.17;;;16.98;;
32228;SDS011;18717;48.034;11.186;2023-05-21T13:02:18;18.27;;;17.02;;
32228;SDS011;18717;48.034;11.186;2023-05-21T13:04:46;19.20;;;17.67;;
32228;SDS011;18717;48.034;11.186;2023-05-21T13:07:16;18.73;;;17.17;;
32228;SDS011;18717;48.034;11.186;2023-05-21T13:09:44;18.73;;;17.50;;
32228;SDS011;18717;48.034;11.186;2023-05-21T13:12:12;19.00;;;17.90;;
32228;SDS011;18717;48.034;11.186;2023-05-21T13:14:39;19.15;;;17.92;;
32228;SDS011;18717;48.034;11.186;2023-05-21T13:17:07;22.48;;;20.95;;
32228;SDS011;18717;48.034;11.186;2023-05-21T13:19:35;19.80;;;18.40;;
32228;SDS011;18717;48.034;11.186;2023-05-21T13:22:02;19.65;;;18.35;;
32228;SDS011;18717;48.034;11.186;2023-05-21T13:24:33;18.58;;;17.42;;
32228;SDS011;18717;48.034;11.186;2023-05-21T13:27:01;19.42;;;18.13;;
32228;SDS011;18717;48.034;11.186;2023-05-21T13:29:29;19.95;;;18.65;;
32228;SDS011;18717;48.034;11.186;2023-05-21T13:31:56;19.35;;;18.15;;
32228;SDS011;18717;48.034;11.186;2023-05-21T13:34:24;19.45;;;18.25;;
32228;SDS011;18717;48.034;11.186;2023-05-21T13:36:52;18.48;;;17.13;;
32228;SDS011;18717;48.034;11.186;2023-05-21T13:39:19;19.55;;;18.25;;
32228;SDS011;18717;48.034;11.186;2023-05-21T13:41:53;20.08;;;18.40;;
32228;SDS011;18717;48.034;11.186;2023-05-21T13:44:21;19.48;;;18.17;;
32228;SDS011;18717;48.034;11.186;2023-05-21T13:46:48;19.60;;;18.17;;
32228;SDS011;18717;48.034;11.186;2023-05-21T13:49:16;19.60;;;18.20;;
32228;SDS011;18717;48.034;11.186;2023-05-21T13:51:44;19.13;;;17.73;;
32228;SDS011;18717;48.034;11.186;2023-05-21T13:54:11;19.42;;;17.77;;
32228;SDS011;18717;48.034;11.186;2023-05-21T13:56:40;18.33;;;17.13;;
32228;SDS011;18717;48.034;11.186;2023-05-21T13:59:09;19.63;;;18.02;;
32228;SDS011;18717;48.034;11.186;2023-05-21T14:01:37;19.52;;;18.13;;
32228;SDS011;18717;48.034;11.186;2023-05-21T14:04:05;19.95;;;18.50;;
32228;SDS011;18717;48.034;11.186;2023-05-21T14:06:33;20.33;;;19.02;;
32228;SDS011;18717;48.034;11.186;2023-05-21T14:09:01;19.73;;;18.35;;
32228;SDS011;18717;48.034;11.186;2023-05-21T14:11:29;19.40;;;18.10;;
32228;SDS011;18717;48.034;11.186;2023-05-21T14:13:57;20.50;;;18.83;;
32228;SDS011;18717;48.034;11.186;2023-05-21T14:16:27;19.10;;;17.60;;
32228;SDS011;18717;48.034;11.186;2023-05-21T14:18:55;18.95;;;17.75;;
32228;SDS011;18717;48.034;11.186;2023-05-21T14:21:23;20.25;;;18.67;;
32228;SDS011;18717;48.034;11.186;2023-05-21T14:23:52;18.92;;;17.73;;
32228;SDS011;18717;48.034;11.186;2023-05-21T14:26:19;19.83;;;18.58;;
32228;SDS011;18717;48.034;11.186;2023-05-21T14:28:47;19.90;;;18.63;;
32228;SDS011;18717;48.034;11.186;2023-05-21T14:31:15;19.20;;;17.95;;
32228;SDS011;18717;48.034;11.186;2023-05-21T14:33:44;20.40;;;19.00;;
32228;SDS011;18717;48.034;11.186;2023-05-21T14:36:11;20.13;;;18.60;;
32228;SDS011;18717;48.034;11.186;2023-05-21T14:38:39;20.45;;;18.88;;
32228;SDS011;18717;48.034;11.186;2023-05-21T14:41:07;19.80;;;18.15;;
32228;SDS011;18717;48.034;11.186;2023-05-21T14:43:34;19.92;;;18.15;;
32228;SDS011;18717;48.034;11.186;2023-05-21T14:46:02;19.17;;;17.42;;
32228;SDS011;18717;48.034;11.186;2023-05-21T14:48:30;19.95;;;18.38;;
32228;SDS011;18717;48.034;11.186;2023-05-21T14:50:59;19.95;;;18.38;;
32228;SDS011;18717;48.034;11.186;2023-05-21T14:53:27;19.60;;;17.95;;
32228;SDS011;18717;48.034;11.186;2023-05-21T14:55:54;21.00;;;19.40;;
32228;SDS011;18717;48.034;11.186;2023-05-21T14:58:22;19.45;;;18.10;;
32228;SDS011;18717;48.034;11.186;2023-05-21T15:00:50;20.38;;;18.77;;
32228;SDS011;18717;48.034;11.186;2023-05-21T15:03:18;19.20;;;17.90;;
32228;SDS011;18717;48.034;11.186;2023-05-21T15:05:46;19.10;;;17.60;;
32228;SDS011;18717;48.034;11.186;2023-05-21T15:08:15;20.17;;;18.73;;
32228;SDS011;18717;48.034;11.186;2023-05-21T15:10:42;18.90;;;17.60;;
32228;SDS011;18717;48.034;11.186;2023-05-21T15:13:10;18.17;;;16.98;;
32228;SDS011;18717;48.034;11.186;2023-05-21T15:15:37;20.17;;;18.40;;
32228;SDS011;18717;48.034;11.186;2023-05-21T15:18:05;20.52;;;19.08;;
32228;SDS011;18717;48.034;11.186;2023-05-21T15:20:34;18.63;;;17.27;;
32228;SDS011;18717;48.034;11.186;2023-05-21T15:23:01;18.70;;;17.50;;
32228;SDS011;18717;48.034;11.186;2023-05-21T15:25:43;18.73;;;17.52;;
32228;SDS011;18717;48.034;11.186;2023-05-21T15:28:11;19.58;;;18.35;;
32228;SDS011;18717;48.034;11.186;2023-05-21T15:30:38;19.83;;;18.42;;
32228;SDS011;18717;48.034;11.186;2023-05-21T15:33:06;19.73;;;18.42;;
32228;SDS011;18717;48.034;11.186;2023-05-21T15:35:34;19.17;;;17.98;;
32228;SDS011;18717;48.034;11.186;2023-05-21T15:38:03;20.05;;;18.35;;
32228;SDS011;18717;48.034;11.186;2023-05-21T15:40:30;19.70;;;18.20;;
32228;SDS011;18717;48.034;11.186;2023-05-21T15:42:59;19.80;;;18.40;;
32228;SDS011;18717;48.034;11.186;2023-05-21T15:45:27;18.95;;;17.55;;
32228;SDS011;18717;48.034;11.186;2023-05-21T15:47:55;18.30;;;17.10;;
32228;SDS011;18717;48.034;11.186;2023-05-21T15:50:23;19.73;;;18.52;;
32228;SDS011;18717;48.034;11.186;2023-05-21T15:52:51;19.05;;;17.85;;